Accueil
METAR-TAF:

METAR-TAF

Aéroports :

Aéroport international de Chongqing-Jiangbei

Chongqing, Chine

latitude: 29-31N, longitude: 106-29E, altitude: 351 m

Observation

Le bulletin a été fait il y a 26 minutes, à 02:00 UTC
Vent 4 kt de nord/nord-est
Température 15°C
Humidité 94%
Pression 1022 hPa
Visibilité: 8000 m
Nuages épars à une hauteur de 2300 ft

METAR: ZUCK 210200Z 02002MPS 8000 SCT023 15/14 Q1022 NOSIG

Heure: 10:26 (02:26 UTC)

Prévision

Le bulletin a été fait il y a 7 heures et 17 minutes, à 19:09 UTC
Prévision valable du 21 à 00 UTC au 21 à 24 UTC
Vent 6 kt de nord/nord-est
Visibilité: 6000 m
Quelques nuages à une hauteur de 1500 ft
Nuages épars à une hauteur de 3000 ft

TAF: ZUCK 201909Z 2100/2124 03003MPS 6000 FEW015 SCT030 TX17/2108Z TN14/2122Z

Observations et prévisions météorologiques de plus de 4000 aéroports (messages METAR et TAF).

Les stations disponibles sont représentées par des disques jaunes et rouges sur la carte.

Passer la souris dessus pour voir le nom de la station.

Cliquer dessus pour voir les observations et prévisions météorologiques.

Pour changer de carte: cliquez sur les boutons verts avec une croix noire pour zoomer, sur le bouton vert avec un tiret pour effectuer un zoom arrière, ou sur les flèches vertes pour les cartes adjacentes.


METAR-TAF: